sensor_id;sensor_type;location;lat;lon;timestamp;temperature;humidity
40952;DHT22;26682;51.660;19.338;2023-11-21T00:02:24;6.60;99.90
40952;DHT22;26682;51.660;19.338;2023-11-21T00:05:08;6.60;99.90
40952;DHT22;26682;51.660;19.338;2023-11-21T00:07:51;6.60;99.90
40952;DHT22;26682;51.660;19.338;2023-11-21T00:10:34;6.60;99.90
40952;DHT22;26682;51.660;19.338;2023-11-21T00:13:17;6.50;99.90
40952;DHT22;26682;51.660;19.338;2023-11-21T00:16:00;6.50;99.90
40952;DHT22;26682;51.660;19.338;2023-11-21T00:18:42;6.50;99.90
40952;DHT22;26682;51.660;19.338;2023-11-21T00:21:25;6.50;99.90
40952;DHT22;26682;51.660;19.338;2023-11-21T00:24:07;6.50;99.90
40952;DHT22;26682;51.660;19.338;2023-11-21T00:26:49;6.40;99.90
40952;DHT22;26682;51.660;19.338;2023-11-21T00:29:32;6.40;99.90
40952;DHT22;26682;51.660;19.338;2023-11-21T00:32:15;6.40;99.90
40952;DHT22;26682;51.660;19.338;2023-11-21T00:34:57;6.30;99.90
40952;DHT22;26682;51.660;19.338;2023-11-21T00:37:40;6.40;99.90
40952;DHT22;26682;51.660;19.338;2023-11-21T00:40:22;6.40;99.90
40952;DHT22;26682;51.660;19.338;2023-11-21T00:43:04;6.40;99.90
40952;DHT22;26682;51.660;19.338;2023-11-21T00:45:47;6.40;99.90
40952;DHT22;26682;51.660;19.338;2023-11-21T00:48:31;6.40;99.90
40952;DHT22;26682;51.660;19.338;2023-11-21T00:51:13;6.30;99.90
40952;DHT22;26682;51.660;19.338;2023-11-21T00:53:55;6.30;99.90
40952;DHT22;26682;51.660;19.338;2023-11-21T00:56:38;6.30;99.90
40952;DHT22;26682;51.660;19.338;2023-11-21T00:59:20;6.30;99.90
40952;DHT22;26682;51.660;19.338;2023-11-21T01:02:02;6.20;99.90
40952;DHT22;26682;51.660;19.338;2023-11-21T01:04:47;6.20;99.90
40952;DHT22;26682;51.660;19.338;2023-11-21T01:07:30;6.20;99.90
40952;DHT22;26682;51.660;19.338;2023-11-21T01:10:12;6.20;99.90
40952;DHT22;26682;51.660;19.338;2023-11-21T01:12:55;6.10;99.90
40952;DHT22;26682;51.660;19.338;2023-11-21T01:15:38;6.00;99.90
40952;DHT22;26682;51.660;19.338;2023-11-21T01:18:21;6.10;99.90
40952;DHT22;26682;51.660;19.338;2023-11-21T01:21:04;6.10;99.90
40952;DHT22;26682;51.660;19.338;2023-11-21T01:23:46;6.00;99.90
40952;DHT22;26682;51.660;19.338;2023-11-21T01:26:31;6.00;99.90
40952;DHT22;26682;51.660;19.338;2023-11-21T01:29:13;6.00;99.90
40952;DHT22;26682;51.660;19.338;2023-11-21T01:31:55;5.90;99.90
40952;DHT22;26682;51.660;19.338;2023-11-21T01:34:39;5.90;99.90
40952;DHT22;26682;51.660;19.338;2023-11-21T01:37:22;5.80;99.90
40952;DHT22;26682;51.660;19.338;2023-11-21T01:40:04;5.80;99.90
40952;DHT22;26682;51.660;19.338;2023-11-21T01:42:53;5.70;99.90
40952;DHT22;26682;51.660;19.338;2023-11-21T01:45:35;5.70;99.90
40952;DHT22;26682;51.660;19.338;2023-11-21T01:48:18;5.70;99.90
40952;DHT22;26682;51.660;19.338;2023-11-21T01:51:02;5.60;99.90
40952;DHT22;26682;51.660;19.338;2023-11-21T01:53:44;5.50;99.90
40952;DHT22;26682;51.660;19.338;2023-11-21T01:56:28;5.60;99.90
40952;DHT22;26682;51.660;19.338;2023-11-21T01:59:19;5.60;99.90
40952;DHT22;26682;51.660;19.338;2023-11-21T02:02:06;5.50;99.90
40952;DHT22;26682;51.660;19.338;2023-11-21T02:04:51;5.40;99.90
40952;DHT22;26682;51.660;19.338;2023-11-21T02:07:33;5.30;99.90
40952;DHT22;26682;51.660;19.338;2023-11-21T02:10:17;5.30;99.90
40952;DHT22;26682;51.660;19.338;2023-11-21T02:13:01;5.30;99.90
40952;DHT22;26682;51.660;19.338;2023-11-21T02:15:45;5.20;99.90
40952;DHT22;26682;51.660;19.338;2023-11-21T02:18:29;5.20;99.90
40952;DHT22;26682;51.660;19.338;2023-11-21T02:21:12;5.20;99.90
40952;DHT22;26682;51.660;19.338;2023-11-21T02:23:54;5.20;99.90
40952;DHT22;26682;51.660;19.338;2023-11-21T02:26:37;5.10;99.90
40952;DHT22;26682;51.660;19.338;2023-11-21T02:29:20;5.10;99.90
40952;DHT22;26682;51.660;19.338;2023-11-21T02:32:10;5.00;99.90
40952;DHT22;26682;51.660;19.338;2023-11-21T02:34:52;5.10;99.90
40952;DHT22;26682;51.660;19.338;2023-11-21T02:37:38;5.20;99.90
40952;DHT22;26682;51.660;19.338;2023-11-21T02:40:21;5.10;99.90
40952;DHT22;26682;51.660;19.338;2023-11-21T02:43:04;5.10;99.90
40952;DHT22;26682;51.660;19.338;2023-11-21T02:45:47;5.10;99.90
40952;DHT22;26682;51.660;19.338;2023-11-21T02:48:30;5.10;99.90
40952;DHT22;26682;51.660;19.338;2023-11-21T02:51:12;5.10;99.90
40952;DHT22;26682;51.660;19.338;2023-11-21T02:53:55;5.10;99.90
40952;DHT22;26682;51.660;19.338;2023-11-21T02:56:40;5.00;99.90
40952;DHT22;26682;51.660;19.338;2023-11-21T02:59:23;5.00;99.90
40952;DHT22;26682;51.660;19.338;2023-11-21T03:02:06;5.00;99.90
40952;DHT22;26682;51.660;19.338;2023-11-21T03:04:51;5.00;99.90
40952;DHT22;26682;51.660;19.338;2023-11-21T03:07:33;5.00;99.90
40952;DHT22;26682;51.660;19.338;2023-11-21T03:10:16;4.90;99.90
40952;DHT22;26682;51.660;19.338;2023-11-21T03:12:58;4.90;99.90
40952;DHT22;26682;51.660;19.338;2023-11-21T03:15:41;4.90;99.90
40952;DHT22;26682;51.660;19.338;2023-11-21T03:18:24;4.90;99.90
40952;DHT22;26682;51.660;19.338;2023-11-21T03:21:08;4.80;99.90
40952;DHT22;26682;51.660;19.338;2023-11-21T03:23:50;4.80;99.90
40952;DHT22;26682;51.660;19.338;2023-11-21T03:26:34;4.70;99.90
40952;DHT22;26682;51.660;19.338;2023-11-21T03:29:16;4.70;99.90
40952;DHT22;26682;51.660;19.338;2023-11-21T03:31:58;4.70;99.90
40952;DHT22;26682;51.660;19.338;2023-11-21T03:34:57;4.70;99.90
40952;DHT22;26682;51.660;19.338;2023-11-21T03:37:41;4.70;99.90
40952;DHT22;26682;51.660;19.338;2023-11-21T03:40:25;4.70;99.90
40952;DHT22;26682;51.660;19.338;2023-11-21T03:43:08;4.80;99.90
40952;DHT22;26682;51.660;19.338;2023-11-21T03:45:50;4.70;99.90
40952;DHT22;26682;51.660;19.338;2023-11-21T03:48:32;4.50;99.90
40952;DHT22;26682;51.660;19.338;2023-11-21T03:51:15;4.40;99.90
40952;DHT22;26682;51.660;19.338;2023-11-21T03:53:57;4.40;99.90
40952;DHT22;26682;51.660;19.338;2023-11-21T03:56:39;4.40;99.90
40952;DHT22;26682;51.660;19.338;2023-11-21T03:59:22;4.40;99.90
40952;DHT22;26682;51.660;19.338;2023-11-21T04:02:06;4.30;99.90
40952;DHT22;26682;51.660;19.338;2023-11-21T04:04:49;4.30;99.90
40952;DHT22;26682;51.660;19.338;2023-11-21T04:07:32;4.20;99.90
40952;DHT22;26682;51.660;19.338;2023-11-21T04:10:14;4.20;99.90
40952;DHT22;26682;51.660;19.338;2023-11-21T04:12:58;4.30;99.90
40952;DHT22;26682;51.660;19.338;2023-11-21T04:15:42;4.30;99.90
40952;DHT22;26682;51.660;19.338;2023-11-21T04:18:24;4.40;99.90
40952;DHT22;26682;51.660;19.338;2023-11-21T04:21:08;4.40;99.90
40952;DHT22;26682;51.660;19.338;2023-11-21T04:23:50;4.30;99.90
40952;DHT22;26682;51.660;19.338;2023-11-21T04:26:32;4.30;99.90
40952;DHT22;26682;51.660;19.338;2023-11-21T04:29:14;4.20;99.90
40952;DHT22;26682;51.660;19.338;2023-11-21T04:31:57;4.30;99.90
40952;DHT22;26682;51.660;19.338;2023-11-21T04:34:39;4.30;99.90
40952;DHT22;26682;51.660;19.338;2023-11-21T04:37:21;4.30;99.90
40952;DHT22;26682;51.660;19.338;2023-11-21T04:40:04;4.30;99.90
40952;DHT22;26682;51.660;19.338;2023-11-21T04:42:49;4.20;99.90
40952;DHT22;26682;51.660;19.338;2023-11-21T04:45:31;4.10;99.90
40952;DHT22;26682;51.660;19.338;2023-11-21T04:48:14;4.00;99.90
40952;DHT22;26682;51.660;19.338;2023-11-21T04:50:57;4.00;99.90
40952;DHT22;26682;51.660;19.338;2023-11-21T04:53:39;3.90;99.90
40952;DHT22;26682;51.660;19.338;2023-11-21T04:56:22;3.90;99.90
40952;DHT22;26682;51.660;19.338;2023-11-21T04:59:04;3.90;99.90
40952;DHT22;26682;51.660;19.338;2023-11-21T05:01:46;3.90;99.90
40952;DHT22;26682;51.660;19.338;2023-11-21T05:04:29;4.00;99.90
40952;DHT22;26682;51.660;19.338;2023-11-21T05:07:11;4.00;99.90
40952;DHT22;26682;51.660;19.338;2023-11-21T05:09:57;4.00;99.90
40952;DHT22;26682;51.660;19.338;2023-11-21T05:12:39;3.90;99.90
40952;DHT22;26682;51.660;19.338;2023-11-21T05:15:22;3.80;99.90
40952;DHT22;26682;51.660;19.338;2023-11-21T05:18:05;3.80;99.90
40952;DHT22;26682;51.660;19.338;2023-11-21T05:20:48;3.70;99.90
40952;DHT22;26682;51.660;19.338;2023-11-21T05:23:31;3.70;99.90
40952;DHT22;26682;51.660;19.338;2023-11-21T05:26:14;3.80;99.90
40952;DHT22;26682;51.660;19.338;2023-11-21T05:28:56;3.70;99.90
40952;DHT22;26682;51.660;19.338;2023-11-21T05:31:38;3.70;99.90
40952;DHT22;26682;51.660;19.338;2023-11-21T05:34:21;3.80;99.90
40952;DHT22;26682;51.660;19.338;2023-11-21T05:37:06;3.80;99.90
40952;DHT22;26682;51.660;19.338;2023-11-21T05:39:48;3.80;99.90
40952;DHT22;26682;51.660;19.338;2023-11-21T05:42:34;3.80;99.90
40952;DHT22;26682;51.660;19.338;2023-11-21T05:45:16;3.60;99.90
40952;DHT22;26682;51.660;19.338;2023-11-21T05:48:01;3.60;99.90
40952;DHT22;26682;51.660;19.338;2023-11-21T05:50:44;3.60;99.90
40952;DHT22;26682;51.660;19.338;2023-11-21T05:53:27;3.50;99.90
40952;DHT22;26682;51.660;19.338;2023-11-21T05:56:09;3.60;99.90
40952;DHT22;26682;51.660;19.338;2023-11-21T05:58:51;3.60;99.90
40952;DHT22;26682;51.660;19.338;2023-11-21T06:01:34;3.40;99.90
40952;DHT22;26682;51.660;19.338;2023-11-21T06:04:20;3.30;99.90
40952;DHT22;26682;51.660;19.338;2023-11-21T06:07:06;3.30;99.90
40952;DHT22;26682;51.660;19.338;2023-11-21T06:09:49;3.30;99.90
40952;DHT22;26682;51.660;19.338;2023-11-21T06:12:32;3.40;99.90
40952;DHT22;26682;51.660;19.338;2023-11-21T06:15:17;3.40;99.90
40952;DHT22;26682;51.660;19.338;2023-11-21T06:18:02;3.40;99.90
40952;DHT22;26682;51.660;19.338;2023-11-21T06:20:45;3.40;99.90
40952;DHT22;26682;51.660;19.338;2023-11-21T06:23:27;3.40;99.90
40952;DHT22;26682;51.660;19.338;2023-11-21T06:26:10;3.40;99.90
40952;DHT22;26682;51.660;19.338;2023-11-21T06:28:52;3.30;99.90
40952;DHT22;26682;51.660;19.338;2023-11-21T06:31:36;3.20;99.90
40952;DHT22;26682;51.660;19.338;2023-11-21T06:34:18;3.10;99.90
40952;DHT22;26682;51.660;19.338;2023-11-21T06:37:01;3.00;99.90
40952;DHT22;26682;51.660;19.338;2023-11-21T06:39:43;3.00;99.90
40952;DHT22;26682;51.660;19.338;2023-11-21T06:42:25;3.10;99.90
40952;DHT22;26682;51.660;19.338;2023-11-21T06:45:08;3.10;99.90
40952;DHT22;26682;51.660;19.338;2023-11-21T06:47:53;3.10;99.90
40952;DHT22;26682;51.660;19.338;2023-11-21T06:50:35;3.10;99.90
40952;DHT22;26682;51.660;19.338;2023-11-21T06:53:17;3.10;99.90
40952;DHT22;26682;51.660;19.338;2023-11-21T06:56:01;3.10;99.90
40952;DHT22;26682;51.660;19.338;2023-11-21T06:58:44;3.10;99.90
40952;DHT22;26682;51.660;19.338;2023-11-21T07:01:27;3.00;99.90
40952;DHT22;26682;51.660;19.338;2023-11-21T07:04:10;3.00;99.90
40952;DHT22;26682;51.660;19.338;2023-11-21T07:06:55;2.90;99.90
40952;DHT22;26682;51.660;19.338;2023-11-21T07:09:38;2.90;99.90
40952;DHT22;26682;51.660;19.338;2023-11-21T07:12:21;2.80;99.90
40952;DHT22;26682;51.660;19.338;2023-11-21T07:15:07;2.70;99.90
40952;DHT22;26682;51.660;19.338;2023-11-21T07:17:51;2.70;99.90
40952;DHT22;26682;51.660;19.338;2023-11-21T07:20:36;2.70;99.90
40952;DHT22;26682;51.660;19.338;2023-11-21T07:23:18;2.60;99.90
40952;DHT22;26682;51.660;19.338;2023-11-21T07:26:00;2.60;99.90
40952;DHT22;26682;51.660;19.338;2023-11-21T07:28:43;2.60;99.90
40952;DHT22;26682;51.660;19.338;2023-11-21T07:31:25;2.60;99.90
40952;DHT22;26682;51.660;19.338;2023-11-21T07:34:08;2.60;99.90
40952;DHT22;26682;51.660;19.338;2023-11-21T07:36:50;2.50;99.90
40952;DHT22;26682;51.660;19.338;2023-11-21T07:39:33;2.50;99.90
40952;DHT22;26682;51.660;19.338;2023-11-21T07:42:15;2.50;99.90
40952;DHT22;26682;51.660;19.338;2023-11-21T07:44:58;2.50;99.90
40952;DHT22;26682;51.660;19.338;2023-11-21T07:47:41;2.50;99.90
40952;DHT22;26682;51.660;19.338;2023-11-21T07:50:23;2.40;99.90
40952;DHT22;26682;51.660;19.338;2023-11-21T07:53:06;2.40;99.90
40952;DHT22;26682;51.660;19.338;2023-11-21T07:55:48;2.40;99.90
40952;DHT22;26682;51.660;19.338;2023-11-21T07:58:31;2.30;99.90
40952;DHT22;26682;51.660;19.338;2023-11-21T08:01:15;2.40;99.90
40952;DHT22;26682;51.660;19.338;2023-11-21T08:03:57;2.40;99.90
40952;DHT22;26682;51.660;19.338;2023-11-21T08:06:44;2.30;99.90
40952;DHT22;26682;51.660;19.338;2023-11-21T08:09:26;2.20;99.90
40952;DHT22;26682;51.660;19.338;2023-11-21T08:12:09;2.20;99.90
40952;DHT22;26682;51.660;19.338;2023-11-21T08:14:53;2.30;99.90
40952;DHT22;26682;51.660;19.338;2023-11-21T08:17:35;2.20;99.90
40952;DHT22;26682;51.660;19.338;2023-11-21T08:20:18;2.10;99.90
40952;DHT22;26682;51.660;19.338;2023-11-21T08:23:00;2.00;99.90
40952;DHT22;26682;51.660;19.338;2023-11-21T08:25:45;2.00;99.90
40952;DHT22;26682;51.660;19.338;2023-11-21T08:28:27;2.10;99.90
40952;DHT22;26682;51.660;19.338;2023-11-21T08:31:10;2.10;99.90
40952;DHT22;26682;51.660;19.338;2023-11-21T08:33:55;2.10;99.90
40952;DHT22;26682;51.660;19.338;2023-11-21T08:36:42;2.00;99.90
40952;DHT22;26682;51.660;19.338;2023-11-21T08:39:24;2.00;99.90
40952;DHT22;26682;51.660;19.338;2023-11-21T08:42:09;2.00;99.90
40952;DHT22;26682;51.660;19.338;2023-11-21T08:44:51;2.00;99.90
40952;DHT22;26682;51.660;19.338;2023-11-21T08:47:33;2.10;99.90
40952;DHT22;26682;51.660;19.338;2023-11-21T08:50:16;2.10;99.90
40952;DHT22;26682;51.660;19.338;2023-11-21T08:52:59;2.00;99.90
40952;DHT22;26682;51.660;19.338;2023-11-21T08:55:41;1.80;99.90
40952;DHT22;26682;51.660;19.338;2023-11-21T08:58:24;1.80;99.90
40952;DHT22;26682;51.660;19.338;2023-11-21T09:01:06;1.70;99.90
40952;DHT22;26682;51.660;19.338;2023-11-21T09:03:49;1.80;99.90
40952;DHT22;26682;51.660;19.338;2023-11-21T09:06:32;1.70;99.90
40952;DHT22;26682;51.660;19.338;2023-11-21T09:09:14;1.60;99.90
40952;DHT22;26682;51.660;19.338;2023-11-21T09:11:57;1.70;99.90
40952;DHT22;26682;51.660;19.338;2023-11-21T09:14:39;1.60;99.90
40952;DHT22;26682;51.660;19.338;2023-11-21T09:17:21;1.60;99.90
40952;DHT22;26682;51.660;19.338;2023-11-21T09:20:04;1.60;99.90
40952;DHT22;26682;51.660;19.338;2023-11-21T09:22:48;1.70;99.90
40952;DHT22;26682;51.660;19.338;2023-11-21T09:25:30;1.70;99.90
40952;DHT22;26682;51.660;19.338;2023-11-21T09:28:13;1.70;99.90
40952;DHT22;26682;51.660;19.338;2023-11-21T09:30:55;1.70;99.90
40952;DHT22;26682;51.660;19.338;2023-11-21T09:33:38;1.70;99.90
40952;DHT22;26682;51.660;19.338;2023-11-21T09:36:20;1.60;99.90
40952;DHT22;26682;51.660;19.338;2023-11-21T09:39:05;1.50;99.90
40952;DHT22;26682;51.660;19.338;2023-11-21T09:47:43;1.50;99.90
40952;DHT22;26682;51.660;19.338;2023-11-21T09:50:26;1.40;99.90
40952;DHT22;26682;51.660;19.338;2023-11-21T09:53:19;1.40;99.90
40952;DHT22;26682;51.660;19.338;2023-11-21T09:56:03;1.40;99.90
40952;DHT22;26682;51.660;19.338;2023-11-21T09:58:46;1.50;99.90
40952;DHT22;26682;51.660;19.338;2023-11-21T10:01:30;1.40;99.90
40952;DHT22;26682;51.660;19.338;2023-11-21T10:04:13;1.40;99.90
40952;DHT22;26682;51.660;19.338;2023-11-21T10:06:56;1.40;99.90
40952;DHT22;26682;51.660;19.338;2023-11-21T10:09:39;1.50;99.90
40952;DHT22;26682;51.660;19.338;2023-11-21T10:12:22;1.40;99.90
40952;DHT22;26682;51.660;19.338;2023-11-21T10:15:07;1.40;99.90
40952;DHT22;26682;51.660;19.338;2023-11-21T10:17:49;1.40;99.90
40952;DHT22;26682;51.660;19.338;2023-11-21T10:20:34;1.40;99.90
40952;DHT22;26682;51.660;19.338;2023-11-21T10:23:16;1.40;99.90
40952;DHT22;26682;51.660;19.338;2023-11-21T10:25:59;1.30;99.90
40952;DHT22;26682;51.660;19.338;2023-11-21T10:28:56;1.40;99.90
40952;DHT22;26682;51.660;19.338;2023-11-21T10:31:40;1.50;99.90
40952;DHT22;26682;51.660;19.338;2023-11-21T10:34:22;1.40;99.90
40952;DHT22;26682;51.660;19.338;2023-11-21T10:37:13;1.40;99.90
40952;DHT22;26682;51.660;19.338;2023-11-21T10:39:59;1.40;99.90
40952;DHT22;26682;51.660;19.338;2023-11-21T10:42:41;1.40;99.90
40952;DHT22;26682;51.660;19.338;2023-11-21T10:45:24;1.40;99.90
40952;DHT22;26682;51.660;19.338;2023-11-21T10:48:06;1.40;99.90
40952;DHT22;26682;51.660;19.338;2023-11-21T10:50:50;1.30;99.90
40952;DHT22;26682;51.660;19.338;2023-11-21T10:53:33;1.40;99.90
40952;DHT22;26682;51.660;19.338;2023-11-21T10:56:15;1.40;99.90
40952;DHT22;26682;51.660;19.338;2023-11-21T10:59:00;1.40;99.90
40952;DHT22;26682;51.660;19.338;2023-11-21T11:01:45;1.40;99.90
40952;DHT22;26682;51.660;19.338;2023-11-21T11:04:28;1.40;99.90
40952;DHT22;26682;51.660;19.338;2023-11-21T11:07:12;1.40;99.90
40952;DHT22;26682;51.660;19.338;2023-11-21T11:09:55;1.40;99.90
40952;DHT22;26682;51.660;19.338;2023-11-21T11:12:38;1.50;99.90
40952;DHT22;26682;51.660;19.338;2023-11-21T11:15:22;1.40;99.90
40952;DHT22;26682;51.660;19.338;2023-11-21T11:18:04;1.40;99.90
40952;DHT22;26682;51.660;19.338;2023-11-21T11:20:49;1.30;99.90
40952;DHT22;26682;51.660;19.338;2023-11-21T11:23:39;1.20;99.90
40952;DHT22;26682;51.660;19.338;2023-11-21T11:32:30;1.30;99.90
40952;DHT22;26682;51.660;19.338;2023-11-21T11:35:42;1.30;99.90
40952;DHT22;26682;51.660;19.338;2023-11-21T11:38:32;1.20;99.90
40952;DHT22;26682;51.660;19.338;2023-11-21T11:41:31;1.10;99.90
40952;DHT22;26682;51.660;19.338;2023-11-21T11:47:24;1.00;99.90
40952;DHT22;26682;51.660;19.338;2023-11-21T11:50:15;1.00;99.90
40952;DHT22;26682;51.660;19.338;2023-11-21T11:53:14;1.00;99.90
40952;DHT22;26682;51.660;19.338;2023-11-21T11:56:07;1.00;99.90
40952;DHT22;26682;51.660;19.338;2023-11-21T11:59:01;1.10;99.90
40952;DHT22;26682;51.660;19.338;2023-11-21T12:01:49;1.00;99.90
40952;DHT22;26682;51.660;19.338;2023-11-21T12:04:32;0.90;99.90
40952;DHT22;26682;51.660;19.338;2023-11-21T12:07:17;1.00;99.90
40952;DHT22;26682;51.660;19.338;2023-11-21T12:09:59;1.00;99.90
40952;DHT22;26682;51.660;19.338;2023-11-21T12:12:43;0.90;99.90
40952;DHT22;26682;51.660;19.338;2023-11-21T12:15:26;0.80;99.90
40952;DHT22;26682;51.660;19.338;2023-11-21T12:18:11;0.80;99.90
40952;DHT22;26682;51.660;19.338;2023-11-21T12:20:53;0.70;99.90
40952;DHT22;26682;51.660;19.338;2023-11-21T12:23:36;0.70;99.90
40952;DHT22;26682;51.660;19.338;2023-11-21T12:26:18;0.70;99.90
40952;DHT22;26682;51.660;19.338;2023-11-21T12:29:01;0.70;99.90
40952;DHT22;26682;51.660;19.338;2023-11-21T12:31:48;0.70;99.90
40952;DHT22;26682;51.660;19.338;2023-11-21T12:34:31;0.60;99.90
40952;DHT22;26682;51.660;19.338;2023-11-21T12:37:15;0.70;99.90
40952;DHT22;26682;51.660;19.338;2023-11-21T12:39:57;0.70;99.90
40952;DHT22;26682;51.660;19.338;2023-11-21T12:42:40;0.60;99.90
40952;DHT22;26682;51.660;19.338;2023-11-21T12:45:23;0.50;99.90
40952;DHT22;26682;51.660;19.338;2023-11-21T12:48:10;0.50;99.90
40952;DHT22;26682;51.660;19.338;2023-11-21T12:50:54;0.50;99.90
40952;DHT22;26682;51.660;19.338;2023-11-21T12:53:38;0.40;99.90
40952;DHT22;26682;51.660;19.338;2023-11-21T12:56:21;0.40;99.90
40952;DHT22;26682;51.660;19.338;2023-11-21T12:59:05;0.30;99.90
40952;DHT22;26682;51.660;19.338;2023-11-21T13:01:48;0.40;99.90
40952;DHT22;26682;51.660;19.338;2023-11-21T13:04:33;0.30;99.90
40952;DHT22;26682;51.660;19.338;2023-11-21T13:07:17;0.30;99.90
40952;DHT22;26682;51.660;19.338;2023-11-21T13:09:59;0.30;99.90
40952;DHT22;26682;51.660;19.338;2023-11-21T13:12:43;0.30;99.90
40952;DHT22;26682;51.660;19.338;2023-11-21T13:15:29;0.20;99.90
40952;DHT22;26682;51.660;19.338;2023-11-21T13:18:13;0.30;99.90
40952;DHT22;26682;51.660;19.338;2023-11-21T13:20:56;0.20;99.90
40952;DHT22;26682;51.660;19.338;2023-11-21T13:23:40;0.20;99.90
40952;DHT22;26682;51.660;19.338;2023-11-21T13:26:23;0.30;99.90
40952;DHT22;26682;51.660;19.338;2023-11-21T13:29:08;0.30;99.90
40952;DHT22;26682;51.660;19.338;2023-11-21T13:31:50;0.20;99.90
40952;DHT22;26682;51.660;19.338;2023-11-21T13:34:33;0.30;99.90
40952;DHT22;26682;51.660;19.338;2023-11-21T13:37:18;0.30;99.90
40952;DHT22;26682;51.660;19.338;2023-11-21T13:40:01;0.30;99.90
40952;DHT22;26682;51.660;19.338;2023-11-21T13:42:55;0.30;99.90
40952;DHT22;26682;51.660;19.338;2023-11-21T13:45:40;0.30;99.90
40952;DHT22;26682;51.660;19.338;2023-11-21T13:48:25;0.40;99.90
40952;DHT22;26682;51.660;19.338;2023-11-21T13:51:14;0.40;99.90
40952;DHT22;26682;51.660;19.338;2023-11-21T13:54:00;0.40;99.90
40952;DHT22;26682;51.660;19.338;2023-11-21T13:56:43;0.30;99.90
40952;DHT22;26682;51.660;19.338;2023-11-21T13:59:28;0.30;99.90
40952;DHT22;26682;51.660;19.338;2023-11-21T14:02:12;0.30;99.90
40952;DHT22;26682;51.660;19.338;2023-11-21T14:05:00;0.30;99.90
40952;DHT22;26682;51.660;19.338;2023-11-21T14:07:51;0.20;99.90
40952;DHT22;26682;51.660;19.338;2023-11-21T14:10:33;0.30;99.90
40952;DHT22;26682;51.660;19.338;2023-11-21T14:13:36;0.30;99.90
40952;DHT22;26682;51.660;19.338;2023-11-21T14:16:18;0.20;99.90
40952;DHT22;26682;51.660;19.338;2023-11-21T14:19:00;0.10;99.90
40952;DHT22;26682;51.660;19.338;2023-11-21T14:21:51;0.10;99.90
40952;DHT22;26682;51.660;19.338;2023-11-21T14:24:35;0.10;99.90
40952;DHT22;26682;51.660;19.338;2023-11-21T14:27:17;0.10;99.90
40952;DHT22;26682;51.660;19.338;2023-11-21T14:30:00;0.10;99.90
40952;DHT22;26682;51.660;19.338;2023-11-21T14:32:42;0.00;99.90
40952;DHT22;26682;51.660;19.338;2023-11-21T14:35:25;0.00;99.90
40952;DHT22;26682;51.660;19.338;2023-11-21T14:38:08;-0.10;99.90
40952;DHT22;26682;51.660;19.338;2023-11-21T14:40:53;0.00;99.90
40952;DHT22;26682;51.660;19.338;2023-11-21T14:43:35;0.00;99.90
40952;DHT22;26682;51.660;19.338;2023-11-21T14:46:18;-0.10;99.90
40952;DHT22;26682;51.660;19.338;2023-11-21T14:49:01;-0.10;99.90
40952;DHT22;26682;51.660;19.338;2023-11-21T14:52:01;-0.10;99.90
40952;DHT22;26682;51.660;19.338;2023-11-21T14:54:50;-0.10;99.90
40952;DHT22;26682;51.660;19.338;2023-11-21T14:57:42;-0.20;99.90
40952;DHT22;26682;51.660;19.338;2023-11-21T15:00:31;-0.20;99.90
40952;DHT22;26682;51.660;19.338;2023-11-21T15:03:34;-0.20;99.90
40952;DHT22;26682;51.660;19.338;2023-11-21T15:06:25;-0.10;99.90
40952;DHT22;26682;51.660;19.338;2023-11-21T15:09:12;-0.20;99.90
40952;DHT22;26682;51.660;19.338;2023-11-21T15:11:54;-0.20;99.90
40952;DHT22;26682;51.660;19.338;2023-11-21T15:17:27;-0.20;99.90
40952;DHT22;26682;51.660;19.338;2023-11-21T15:20:13;-0.20;99.90
40952;DHT22;26682;51.660;19.338;2023-11-21T15:23:01;-0.30;99.90
40952;DHT22;26682;51.660;19.338;2023-11-21T15:25:45;-0.30;99.90
40952;DHT22;26682;51.660;19.338;2023-11-21T15:28:28;-0.40;99.90
40952;DHT22;26682;51.660;19.338;2023-11-21T15:31:11;-0.30;99.90
40952;DHT22;26682;51.660;19.338;2023-11-21T15:33:53;-0.30;99.90
40952;DHT22;26682;51.660;19.338;2023-11-21T15:36:36;-0.30;99.90
40952;DHT22;26682;51.660;19.338;2023-11-21T15:39:19;-0.30;99.90
40952;DHT22;26682;51.660;19.338;2023-11-21T15:42:04;-0.40;99.90
40952;DHT22;26682;51.660;19.338;2023-11-21T15:44:49;-0.40;99.90
40952;DHT22;26682;51.660;19.338;2023-11-21T15:47:33;-0.40;99.90
40952;DHT22;26682;51.660;19.338;2023-11-21T15:50:16;-0.50;99.90
40952;DHT22;26682;51.660;19.338;2023-11-21T15:52:59;-0.40;99.90
40952;DHT22;26682;51.660;19.338;2023-11-21T15:55:41;-0.40;99.90
40952;DHT22;26682;51.660;19.338;2023-11-21T15:58:25;-0.40;99.90
40952;DHT22;26682;51.660;19.338;2023-11-21T16:01:08;-0.40;99.90
40952;DHT22;26682;51.660;19.338;2023-11-21T16:03:52;-0.50;99.90
40952;DHT22;26682;51.660;19.338;2023-11-21T16:06:35;-0.50;99.90
40952;DHT22;26682;51.660;19.338;2023-11-21T16:09:21;-0.40;99.90
40952;DHT22;26682;51.660;19.338;2023-11-21T16:12:14;-0.50;99.90
40952;DHT22;26682;51.660;19.338;2023-11-21T16:14:57;-0.50;99.90
40952;DHT22;26682;51.660;19.338;2023-11-21T16:17:40;-0.50;99.90
40952;DHT22;26682;51.660;19.338;2023-11-21T16:20:27;-0.50;99.90
40952;DHT22;26682;51.660;19.338;2023-11-21T16:23:09;-0.40;99.90
40952;DHT22;26682;51.660;19.338;2023-11-21T16:25:52;-0.50;99.90
40952;DHT22;26682;51.660;19.338;2023-11-21T16:28:37;-0.50;99.90
40952;DHT22;26682;51.660;19.338;2023-11-21T16:31:23;-0.50;99.90
40952;DHT22;26682;51.660;19.338;2023-11-21T16:34:11;-0.50;99.90
40952;DHT22;26682;51.660;19.338;2023-11-21T16:37:01;-0.50;99.90
40952;DHT22;26682;51.660;19.338;2023-11-21T16:39:44;-0.50;99.90
40952;DHT22;26682;51.660;19.338;2023-11-21T16:42:31;-0.50;99.90
40952;DHT22;26682;51.660;19.338;2023-11-21T16:45:15;-0.60;99.90
40952;DHT22;26682;51.660;19.338;2023-11-21T16:47:57;-0.50;99.90
40952;DHT22;26682;51.660;19.338;2023-11-21T16:50:42;-0.50;99.90
40952;DHT22;26682;51.660;19.338;2023-11-21T16:53:25;-0.60;99.90
40952;DHT22;26682;51.660;19.338;2023-11-21T16:56:08;-0.50;99.90
40952;DHT22;26682;51.660;19.338;2023-11-21T16:58:50;-0.50;99.90
40952;DHT22;26682;51.660;19.338;2023-11-21T17:01:33;-0.50;97.10
40952;DHT22;26682;51.660;19.338;2023-11-21T17:04:16;-0.50;87.00
40952;DHT22;26682;51.660;19.338;2023-11-21T17:07:02;-0.60;96.40
40952;DHT22;26682;51.660;19.338;2023-11-21T17:09:45;-0.60;92.40
40952;DHT22;26682;51.660;19.338;2023-11-21T17:12:28;-0.60;78.90
40952;DHT22;26682;51.660;19.338;2023-11-21T17:15:11;-0.60;99.90
40952;DHT22;26682;51.660;19.338;2023-11-21T17:17:54;-0.60;96.60
40952;DHT22;26682;51.660;19.338;2023-11-21T17:20:41;-0.70;75.50
40952;DHT22;26682;51.660;19.338;2023-11-21T17:23:23;-0.60;46.30
40952;DHT22;26682;51.660;19.338;2023-11-21T17:26:06;-0.60;99.90
40952;DHT22;26682;51.660;19.338;2023-11-21T17:28:49;-0.70;99.90
40952;DHT22;26682;51.660;19.338;2023-11-21T17:31:32;-0.60;76.00